Time;durP1;ratioP1;P1;durP2;ratioP2;P2;SDS_P1;SDS_P2;PMS_P1;PMS_P2;Temp;Humidity;BMP_temperature;BMP_pressure;BME280_temperature;BME280_humidity;BME280_pressure;Samples;Min_cycle;Max_cycle;Signal;HPM_P1;HPM_P2
2022/08/14 00:00:10;;;;;;;12.75;7.78;;;;;;;22.31;71.91;100417.72;3578893;80;98744;-81
2022/08/14 00:05:16;;;;;;;11.40;7.30;;;;;;;22.24;72.28;100410.95;3561905;82;32315;-83
2022/08/14 00:10:19;;;;;;;;;;;;;;;22.17;72.33;100413.27;3528342;82;98555;-82
2022/08/14 00:15:28;;;;;;;9.13;6.22;;;;;;;22.12;73.64;100410.41;3517224;82;26469;-82
2022/08/14 00:20:34;;;;;;;10.20;6.85;;;;;;;22.05;72.56;100403.66;3663880;79;98745;-82
2022/08/14 00:25:35;;;;;;;9.83;6.33;;;;;;;21.98;72.86;100401.12;3650518;79;26565;-82
2022/08/14 00:30:37;;;;;;;9.05;6.33;;;;;;;21.93;72.91;100399.50;3641995;80;98704;-81
2022/08/14 00:35:38;;;;;;;10.93;6.25;;;;;;;21.84;72.97;100388.20;3633184;80;39461;-82
2022/08/14 00:40:39;;;;;;;10.78;5.78;;;;;;;21.77;73.21;100385.66;3632122;80;99077;-82
2022/08/14 00:45:40;;;;;;;9.68;5.80;;;;;;;21.73;73.29;100394.80;3640253;80;31641;-81
2022/08/14 00:50:41;;;;;;;11.28;5.80;;;;;;;21.69;73.47;100387.92;3639510;79;98617;-82
2022/08/14 00:55:43;;;;;;;7.97;5.28;;;;;;;21.61;73.54;100383.78;3655339;80;29826;-82
2022/08/14 01:00:46;;;;;;;12.78;5.75;;;;;;;21.62;73.89;100376.95;3634475;80;98522;-80
2022/08/14 01:05:50;;;;;;;8.78;5.72;;;;;;;21.59;73.78;100372.23;3627482;80;31742;-82
2022/08/14 01:10:55;;;;;;;9.13;5.30;;;;;;;21.57;73.90;100371.91;3643712;79;98268;-82
2022/08/14 01:16:00;;;;;;;10.45;5.97;;;;;;;21.49;73.62;100376.81;3633838;80;31757;-82
2022/08/14 01:21:05;;;;;;;10.88;6.28;;;;;;;21.43;74.29;100372.42;3600621;80;98528;-82
2022/08/14 01:26:07;;;;;;;10.20;5.85;;;;;;;21.45;74.74;100376.14;3643232;79;32895;-81
2022/08/14 01:31:16;;;;;;;8.33;5.87;;;;;;;21.46;74.73;100379.91;3632689;79;98485;-82
2022/08/14 01:36:19;;;;;;;11.25;5.45;;;;;;;21.39;74.75;100368.16;3641398;79;32875;-81
2022/08/14 01:41:22;;;;;;;8.88;5.35;;;;;;;21.32;74.75;100369.20;3627488;80;31689;-81
2022/08/14 01:46:24;;;;;;;9.23;4.83;;;;;;;21.26;74.70;100363.21;3638251;80;98688;-82
2022/08/14 01:51:27;;;;;;;9.53;5.97;;;;;;;21.17;74.84;100361.70;3648710;79;31700;-82
2022/08/14 01:56:37;;;;;;;9.40;6.00;;;;;;;21.05;74.63;100355.52;3625419;79;98961;-82
2022/08/14 02:01:37;;;;;;;8.23;4.83;;;;;;;20.96;75.16;100364.59;3639862;78;31641;-82
2022/08/14 02:06:38;;;;;;;7.28;5.42;;;;;;;20.89;75.27;100357.83;3630711;79;98812;-82
2022/08/14 02:11:39;;;;;;;7.05;4.80;;;;;;;20.79;75.45;100364.51;3638100;79;30589;-82
2022/08/14 02:16:50;;;;;;;10.53;5.72;;;;;;;20.72;75.78;100359.11;3627349;80;98754;-82
2022/08/14 02:21:55;;;;;;;8.35;5.22;;;;;;;20.62;75.93;100356.66;3631687;79;31655;-82
2022/08/14 02:26:59;;;;;;;8.95;5.58;;;;;;;20.61;76.29;100350.91;3597389;80;98526;-82
2022/08/14 02:32:00;;;;;;;10.30;5.47;;;;;;;20.52;76.57;100352.97;3634280;79;31897;-82
2022/08/14 02:37:08;;;;;;;8.85;4.92;;;;;;;20.52;76.29;100352.97;3632152;79;98945;-81
2022/08/14 02:42:15;;;;;;;10.20;5.75;;;;;;;20.47;76.80;100343.73;3634173;79;31651;-81
2022/08/14 02:47:18;;;;;;;10.85;5.62;;;;;;;20.46;76.85;100333.78;3612146;80;98909;-80
2022/08/14 02:52:19;;;;;;;10.25;5.62;;;;;;;20.40;77.06;100336.17;3638764;80;32229;-81
2022/08/14 02:57:22;;;;;;;9.70;5.80;;;;;;;20.38;77.23;100339.41;3619364;80;99091;-82
2022/08/14 03:02:23;;;;;;;10.58;5.35;;;;;;;20.37;77.14;100332.86;3624579;80;32307;-82
2022/08/14 03:07:24;;;;;;;9.18;5.40;;;;;;;20.36;77.47;100338.28;3615950;80;98991;-82
2022/08/14 03:12:26;;;;;;;18.30;6.35;;;;;;;20.33;77.39;100339.95;3624611;80;31816;-82
2022/08/14 03:17:27;;;;;;;8.85;5.75;;;;;;;20.27;77.68;100340.97;3619270;80;98903;-81
2022/08/14 03:22:28;;;;;;;12.65;5.85;;;;;;;20.23;77.73;100336.09;3621097;80;32314;-82
2022/08/14 03:27:30;;;;;;;10.70;6.00;;;;;;;20.14;77.80;100333.95;3608789;80;98664;-80
2022/08/14 03:32:32;;;;;;;10.00;5.85;;;;;;;20.08;78.01;100334.94;3578657;80;31785;-83
2022/08/14 03:37:33;;;;;;;10.05;5.83;;;;;;;20.01;78.40;100337.91;3618478;80;98669;-82
2022/08/14 03:42:35;;;;;;;7.95;5.92;;;;;;;19.95;78.66;100336.89;3623587;80;32905;-82
2022/08/14 03:47:39;;;;;;;13.13;6.35;;;;;;;19.91;78.76;100327.82;3611611;80;98406;-81
2022/08/14 03:52:43;;;;;;;13.75;6.45;;;;;;;19.85;78.72;100328.98;3625883;80;31731;-81
2022/08/14 03:57:44;;;;;;;9.93;5.80;;;;;;;19.84;79.01;100316.22;3617690;80;98818;-82
2022/08/14 04:02:46;;;;;;;14.58;6.12;;;;;;;19.83;79.17;100316.06;3563136;80;31432;-82
2022/08/14 04:07:48;;;;;;;8.30;6.17;;;;;;;19.78;79.23;100311.02;3538431;81;99079;-81
2022/08/14 04:12:49;;;;;;;13.85;6.72;;;;;;;19.78;79.22;100306.83;3552355;81;31700;-82
2022/08/14 04:17:50;;;;;;;9.88;6.45;;;;;;;19.78;79.33;100312.41;3543036;81;98692;-82
2022/08/14 04:22:52;;;;;;;11.00;6.40;;;;;;;19.73;79.61;100311.55;3541686;81;36046;-81
2022/08/14 04:27:53;;;;;;;10.50;5.92;;;;;;;19.72;79.86;100308.59;3551521;81;98575;-82
2022/08/14 04:32:56;;;;;;;10.20;6.30;;;;;;;19.69;79.97;100310.89;3540361;82;31646;-82
2022/08/14 04:43:35;;;;;;;27.17;8.13;;;;;;;19.67;80.01;100309.13;3533504;81;31713;-82
2022/08/14 04:48:37;;;;;;;9.73;7.15;;;;;;;19.63;80.51;100300.06;3556195;81;99006;-83
2022/08/14 04:53:45;;;;;;;10.60;7.70;;;;;;;19.63;80.51;100300.06;3539266;82;32296;-83
2022/08/14 04:58:46;;;;;;;11.65;8.00;;;;;;;19.61;80.89;100296.17;3536980;81;98909;-81
2022/08/14 05:03:48;;;;;;;15.18;8.35;;;;;;;19.61;81.00;100301.13;3611975;80;31597;-82
2022/08/14 05:08:49;;;;;;;12.53;7.33;;;;;;;19.65;81.23;100304.61;3629386;80;98964;-82
2022/08/14 05:13:50;;;;;;;10.78;6.85;;;;;;;19.68;81.45;100309.30;3627407;80;31415;-83
2022/08/14 05:18:51;;;;;;;12.53;7.75;;;;;;;19.74;81.53;100298.39;3618954;80;98988;-84
2022/08/14 05:23:53;;;;;;;10.35;6.97;;;;;;;19.76;81.67;100286.95;3631964;80;31735;-83
2022/08/14 05:28:54;;;;;;;9.68;6.58;;;;;;;19.78;81.74;100297.68;3622271;80;98608;-81
2022/08/14 05:33:55;;;;;;;11.43;7.20;;;;;;;19.95;81.83;100288.77;3636863;80;31741;-82
2022/08/14 05:38:56;;;;;;;12.75;7.62;;;;;;;19.95;81.83;100288.77;3633763;79;99030;-82
2022/08/14 05:43:57;;;;;;;10.23;6.67;;;;;;;20.06;81.54;100292.03;3629030;80;30418;-82
2022/08/14 05:48:59;;;;;;;10.70;6.20;;;;;;;20.12;81.53;100287.48;3611448;80;98694;-82
2022/08/14 05:54:00;;;;;;;10.50;7.05;;;;;;;20.22;81.39;100289.81;3623872;80;31766;-82
2022/08/14 05:59:01;;;;;;;11.50;6.75;;;;;;;20.39;81.19;100292.68;3621687;79;99065;-82
2022/08/14 06:04:03;;;;;;;9.05;5.92;;;;;;;20.51;80.99;100286.30;3625550;80;30877;-84
2022/08/14 06:09:07;;;;;;;8.25;6.03;;;;;;;20.67;80.64;100277.80;3618894;80;98549;-81
2022/08/14 06:14:09;;;;;;;9.38;6.12;;;;;;;20.82;80.30;100274.71;3601614;80;32386;-82
2022/08/14 06:19:10;;;;;;;10.72;6.45;;;;;;;21.00;79.85;100260.33;3587600;79;98899;-82
2022/08/14 06:24:11;;;;;;;10.78;6.03;;;;;;;21.17;79.40;100256.74;3591943;79;32920;-83
2022/08/14 06:29:12;;;;;;;8.20;5.80;;;;;;;21.30;79.11;100256.09;3588194;80;98592;-81
2022/08/14 06:34:16;;;;;;;11.22;7.03;;;;;;;21.40;78.63;100263.31;3566203;80;1999397;-81
2022/08/14 06:39:17;;;;;;;11.10;6.40;;;;;;;21.54;78.32;100259.41;3582415;80;98914;-83
2022/08/14 06:44:18;;;;;;;10.38;6.60;;;;;;;21.68;78.22;100258.91;3573699;80;31773;-82
2022/08/14 06:49:19;;;;;;;8.78;5.58;;;;;;;21.88;77.75;100257.17;3579246;80;98947;-82
2022/08/14 06:54:20;;;;;;;8.08;5.87;;;;;;;22.05;77.50;100255.71;3614745;79;31825;-81
2022/08/14 06:59:20;;;;;;;10.25;6.25;;;;;;;22.22;77.01;100251.44;3619858;80;98492;-83
2022/08/14 07:09:41;;;;;;;9.48;6.10;;;;;;;22.64;76.44;100233.73;3616712;80;98362;-83
2022/08/14 07:14:42;;;;;;;11.40;5.28;;;;;;;22.80;75.09;100258.72;3631475;80;32240;-83
2022/08/14 07:19:43;;;;;;;10.63;5.85;;;;;;;22.99;74.71;100255.34;3609739;81;98637;-82
2022/08/14 07:24:44;;;;;;;13.30;6.00;;;;;;;23.33;73.70;100248.06;3602203;80;32234;-82
2022/08/14 07:29:45;;;;;;;11.00;5.83;;;;;;;23.62;73.90;100242.73;3609996;79;98389;-82
2022/08/14 07:34:46;;;;;;;9.08;4.80;;;;;;;23.91;73.46;100232.57;3609985;80;32320;-82
2022/08/14 07:39:47;;;;;;;12.23;5.75;;;;;;;24.24;72.46;100232.00;3607217;79;98098;-82
2022/08/14 07:44:49;;;;;;;9.55;4.80;;;;;;;24.57;71.47;100242.63;3612348;80;32361;-82
2022/08/14 07:50:04;;;;;;;8.30;5.47;;;;;;;24.54;69.67;100250.64;3612636;80;98285;-82
2022/08/14 07:55:07;;;;;;;9.70;5.50;;;;;;;24.76;69.88;100244.76;3626124;80;26599;-83
2022/08/14 08:00:19;;;;;;;9.45;5.50;;;;;;;24.78;68.42;100239.42;3620121;79;98988;-82
2022/08/14 08:05:25;;;;;;;7.25;5.37;;;;;;;25.04;69.38;100241.92;3634791;80;31710;-81
2022/08/14 08:10:32;;;;;;;9.48;5.15;;;;;;;25.34;68.55;100232.34;3623683;79;98609;-83
2022/08/14 08:15:40;;;;;;;8.75;4.58;;;;;;;25.56;67.23;100231.38;3626249;80;31750;-85
2022/08/14 08:20:48;;;;;;;11.40;4.90;;;;;;;25.92;67.85;100223.97;3623967;79;98594;-84
2022/08/14 08:25:51;;;;;;;8.43;5.10;;;;;;;26.50;66.87;100225.33;3632644;80;26325;-83
2022/08/14 08:30:56;;;;;;;8.35;4.90;;;;;;;26.98;66.32;100217.43;3622664;80;98390;-83
2022/08/14 08:36:02;;;;;;;9.98;5.00;;;;;;;27.65;65.36;100211.33;3636322;80;25891;-83
2022/08/14 08:41:04;;;;;;;10.50;4.55;;;;;;;28.15;62.80;100207.55;3627688;80;98374;-85
2022/08/14 08:46:13;;;;;;;9.45;4.30;;;;;;;28.67;61.92;100209.00;3625759;80;31680;-85
2022/08/14 08:51:31;;;;;;;5.60;3.90;;;;;;;29.76;61.02;100200.16;3616022;80;98422;-86
2022/08/14 08:56:48;;;;;;;5.28;4.08;;;;;;;30.38;57.43;100202.54;3625222;80;98891;-85
2022/08/14 09:01:52;;;;;;;9.65;3.87;;;;;;;31.38;57.12;100191.67;3620605;80;26371;-86
2022/08/14 09:06:54;;;;;;;8.95;3.85;;;;;;;32.23;54.95;100180.70;3531093;82;98440;-86
2022/08/14 09:11:57;;;;;;;7.37;3.65;;;;;;;32.75;52.93;100166.32;3540338;81;25943;-86
2022/08/14 09:16:59;;;;;;;6.70;4.15;;;;;;;33.22;51.01;100160.45;3526711;82;98884;-89
2022/08/14 09:22:00;;;;;;;8.23;3.70;;;;;;;34.02;49.92;100155.38;3532617;82;30433;-86
2022/08/14 09:27:01;;;;;;;6.10;3.85;;;;;;;34.98;48.15;100136.70;3518939;82;98584;-88
2022/08/14 09:32:05;;;;;;;8.58;3.67;;;;;;;35.58;46.59;100148.21;3530272;82;26502;-85
2022/08/14 09:37:32;;;;;;;7.60;4.03;;;;;;;35.06;42.64;100138.33;3522163;82;98639;-87
2022/08/14 09:42:44;;;;;;;7.37;4.42;;;;;;;35.39;44.27;100135.41;3528482;82;26057;-85
2022/08/14 09:47:56;;;;;;;10.18;4.03;;;;;;;35.84;40.94;100125.22;3529397;81;98823;-87
2022/08/14 09:53:02;;;;;;;8.08;4.42;;;;;;;35.92;41.15;100119.56;3518305;81;26847;-84
2022/08/14 09:58:15;;;;;;;5.65;3.75;;;;;;;36.04;41.46;100119.37;3532526;81;98500;-83
2022/08/14 10:03:33;;;;;;;5.92;3.92;;;;;;;35.91;41.43;100115.16;3561120;81;26011;-84
2022/08/14 10:08:51;;;;;;;8.15;4.60;;;;;;;36.03;40.43;100117.84;3602344;81;98432;-83
2022/08/14 10:13:57;;;;;;;8.35;5.33;;;;;;;35.73;39.78;100107.53;3617987;81;28965;-86
2022/08/14 10:19:06;;;;;;;9.05;5.75;;;;;;;35.20;38.84;100103.31;3611299;81;98606;-85
2022/08/14 10:24:09;;;;;;;8.33;4.87;;;;;;;34.94;38.64;100102.72;3613781;80;27111;-85
2022/08/14 10:29:13;;;;;;;;;;;;;;;34.44;38.78;100095.03;3597238;81;98672;-86
2022/08/14 10:34:18;;;;;;;9.80;4.97;;;;;;;34.09;38.47;100086.83;3617338;81;26508;-85
2022/08/14 10:39:24;;;;;;;9.65;5.35;;;;;;;34.23;40.96;100081.25;3584918;81;98799;-82
2022/08/14 10:44:34;;;;;;;8.60;6.33;;;;;;;34.64;40.08;100083.69;3621417;80;26762;-84
2022/08/14 10:49:38;;;;;;;10.78;6.55;;;;;;;33.90;39.35;100089.00;3612050;81;98424;-81
2022/08/14 10:54:44;;;;;;;;;;;;;;;33.85;39.62;100092.72;3625506;81;26466;-83
2022/08/14 10:59:56;;;;;;;9.50;6.17;;;;;;;33.77;38.87;100088.27;3610091;80;84662;-80
2022/08/14 11:05:14;;;;;;;10.20;6.00;;;;;;;33.38;40.36;100092.42;3624140;80;26295;-81
2022/08/14 11:10:15;;;;;;;11.43;6.95;;;;;;;33.21;39.76;100086.17;3604991;79;98746;-82
2022/08/14 11:15:23;;;;;;;12.95;6.50;;;;;;;32.93;40.28;100079.31;3617946;80;26633;-85
2022/08/14 11:20:28;;;;;;;14.25;7.58;;;;;;;32.86;40.79;100079.94;3627261;79;99154;-84
2022/08/14 11:25:30;;;;;;;10.60;7.60;;;;;;;32.52;41.29;100070.25;3623763;79;27931;-83
2022/08/14 11:30:33;;;;;;;10.43;7.92;;;;;;;32.28;41.55;100053.16;3612336;80;98537;-82
2022/08/14 11:35:36;;;;;;;15.23;7.80;;;;;;;32.33;41.48;100055.17;3633830;79;25833;-82
2022/08/14 11:40:38;;;;;;;15.00;8.38;;;;;;;32.25;41.45;100049.95;3633569;79;98542;-80
2022/08/14 11:45:40;;;;;;;13.90;8.68;;;;;;;31.96;42.15;100045.84;3641304;79;25892;-80
2022/08/14 11:50:42;;;;;;;11.10;7.92;;;;;;;32.31;42.24;100035.77;3607486;79;98491;-82
2022/08/14 11:55:43;;;;;;;15.30;8.30;;;;;;;32.10;42.90;100037.53;3620879;80;68486;-80
2022/08/14 12:01:00;;;;;;;12.13;7.65;;;;;;;32.04;43.45;100025.44;3641232;79;98700;-83
2022/08/14 12:06:09;;;;;;;12.23;8.50;;;;;;;31.99;43.53;100019.81;3626520;80;25904;-81
2022/08/14 12:11:14;;;;;;;14.28;7.85;;;;;;;31.85;42.85;100012.44;3618652;80;98547;-81
2022/08/14 12:16:15;;;;;;;12.30;8.45;;;;;;;31.73;43.49;100018.12;3611518;80;25881;-82
2022/08/14 12:21:24;;;;;;;11.97;7.83;;;;;;;31.91;43.47;99997.49;3606907;80;98456;-84
2022/08/14 12:26:26;;;;;;;11.90;8.25;;;;;;;32.15;42.79;99997.50;3602935;80;98894;-81
2022/08/14 12:31:28;;;;;;;13.58;7.75;;;;;;;32.18;42.75;99988.66;3623225;81;44249;-82
2022/08/14 12:36:29;;;;;;;14.45;8.13;;;;;;;32.62;42.04;99978.78;3614825;81;98781;-81
2022/08/14 12:41:37;;;;;;;16.17;8.55;;;;;;;32.66;41.65;99972.91;3619823;80;25888;-78
2022/08/14 12:46:41;;;;;;;12.30;8.45;;;;;;;32.54;41.83;99976.44;3616102;81;98922;-82
2022/08/14 12:51:44;;;;;;;14.18;8.28;;;;;;;32.55;41.96;99975.91;3626977;81;25935;-80
2022/08/14 12:56:46;;;;;;;17.23;9.38;;;;;;;32.38;42.40;99969.66;3631187;80;98754;-81
2022/08/14 13:01:53;;;;;;;20.50;10.95;;;;;;;32.33;43.22;99966.23;3624730;80;26569;-82
2022/08/14 13:06:55;;;;;;;15.40;9.80;;;;;;;32.37;45.26;99967.34;3616607;80;98937;-86
2022/08/14 13:11:56;;;;;;;16.62;10.05;;;;;;;31.93;48.58;99974.98;3612706;79;49335;-88
2022/08/14 13:16:57;;;;;;;14.05;9.85;;;;;;;31.25;50.79;99986.72;3610537;80;98656;-88
2022/08/14 13:21:58;;;;;;;16.10;9.20;;;;;;;30.80;52.51;99988.31;3622688;80;28746;-84
2022/08/14 13:27:03;;;;;;;14.20;9.18;;;;;;;30.49;53.38;99982.39;3616432;80;98828;-86
2022/08/14 13:32:04;;;;;;;11.45;8.08;;;;;;;30.18;54.60;99972.09;3619795;80;25480;-83
2022/08/14 13:37:06;;;;;;;11.53;8.80;;;;;;;29.86;54.50;99960.28;3619336;80;98457;-83
2022/08/14 13:42:13;;;;;;;11.88;9.10;;;;;;;29.86;54.50;99960.28;3627047;80;26074;-82
2022/08/14 13:47:13;;;;;;;12.13;8.70;;;;;;;29.78;55.58;99951.41;3614362;79;98410;-82
2022/08/14 13:52:19;;;;;;;13.90;9.15;;;;;;;29.78;55.72;99948.56;3620491;80;31957;-81
2022/08/14 13:57:20;;;;;;;12.20;9.03;;;;;;;29.64;56.72;99941.14;3599200;80;98924;-81
2022/08/14 14:02:22;;;;;;;12.78;8.93;;;;;;;29.46;57.36;99926.83;3624153;79;26031;-80
2022/08/14 14:07:23;;;;;;;12.18;9.08;;;;;;;29.31;57.50;99916.41;3624365;79;98424;-81
2022/08/14 14:12:25;;;;;;;14.80;9.43;;;;;;;29.24;58.23;99918.35;3625290;79;25825;-81
2022/08/14 14:17:28;;;;;;;12.70;9.10;;;;;;;29.00;58.85;99913.88;3601680;79;98935;-82
2022/08/14 14:22:30;;;;;;;13.55;8.95;;;;;;;28.82;58.77;99905.08;3633680;79;26184;-80
2022/08/14 14:27:34;;;;;;;11.63;8.43;;;;;;;28.69;59.06;99902.73;3619039;80;98875;-80
2022/08/14 14:32:40;;;;;;;13.45;8.45;;;;;;;28.59;58.71;99892.16;3627756;80;26476;-81
2022/08/14 14:37:43;;;;;;;13.03;9.45;;;;;;;28.45;59.48;99885.44;3628068;80;98480;-81
2022/08/14 14:42:49;;;;;;;12.23;8.63;;;;;;;28.20;59.81;99877.91;3636235;80;25891;-80
2022/08/14 14:47:54;;;;;;;17.90;9.68;;;;;;;28.03;60.24;99868.60;3620347;80;98506;-83
2022/08/14 14:52:56;;;;;;;12.28;9.23;;;;;;;27.95;61.13;99867.53;3622036;79;26478;-81
2022/08/14 14:58:00;;;;;;;16.07;9.43;;;;;;;27.78;61.03;99865.28;3600277;80;98857;-81
2022/08/14 15:03:01;;;;;;;14.90;8.50;;;;;;;27.72;61.29;99868.70;3634906;80;26579;-80
2022/08/14 15:08:05;;;;;;;14.78;10.20;;;;;;;27.55;61.66;99863.61;3609101;80;98745;-81
2022/08/14 15:13:06;;;;;;;15.50;9.08;;;;;;;27.45;61.73;99857.23;3619681;81;26771;-80
2022/08/14 15:18:08;;;;;;;13.55;9.43;;;;;;;27.32;62.01;99849.85;3609784;81;98709;-80
2022/08/14 15:23:09;;;;;;;14.20;10.30;;;;;;;27.11;62.16;99842.13;3613978;80;82435;-84
2022/08/14 15:28:10;;;;;;;13.10;9.50;;;;;;;27.01;62.42;99852.69;3613690;81;98819;-84
2022/08/14 15:33:12;;;;;;;14.20;10.18;;;;;;;26.90;62.58;99855.43;3613593;81;31978;-86
2022/08/14 15:38:13;;;;;;;12.73;9.28;;;;;;;26.86;62.97;99848.61;3611716;80;99038;-86
2022/08/14 15:43:14;;;;;;;12.05;8.03;;;;;;;26.91;62.90;99851.36;3621813;81;32185;-84
2022/08/14 15:48:16;;;;;;;13.32;8.35;;;;;;;26.90;61.14;99845.55;3617768;80;98942;-86
2022/08/14 15:53:21;;;;;;;13.13;7.92;;;;;;;26.87;60.59;99843.74;3617138;80;26481;-85
2022/08/14 15:58:24;;;;;;;10.13;7.35;;;;;;;26.83;60.28;99834.09;3598543;81;98615;-84
2022/08/14 16:03:25;;;;;;;11.30;7.83;;;;;;;26.81;59.96;99830.98;3614247;81;34450;-83
2022/08/14 16:08:27;;;;;;;10.80;7.25;;;;;;;26.78;59.31;99826.98;3616906;81;98799;-82
2022/08/14 16:13:31;;;;;;;9.65;6.87;;;;;;;26.68;58.99;99821.38;3616016;80;31850;-84
2022/08/14 16:23:43;;;;;;;12.93;7.75;;;;;;;26.64;58.67;99827.91;3563248;80;31858;-87
2022/08/14 16:28:44;;;;;;;13.83;7.47;;;;;;;26.57;58.83;99822.70;3527493;80;98477;-84
2022/08/14 16:33:47;;;;;;;10.72;7.87;;;;;;;26.56;59.10;99821.15;3529277;80;31763;-86
2022/08/14 16:38:55;;;;;;;12.82;7.67;;;;;;;26.52;58.98;99819.16;3499111;81;98755;-87
2022/08/14 16:44:04;;;;;;;11.50;7.37;;;;;;;26.50;58.73;99823.91;3562913;81;25882;-84
2022/08/14 16:49:09;;;;;;;10.58;7.70;;;;;;;26.49;58.79;99828.64;3559287;81;98560;-85
2022/08/14 16:54:16;;;;;;;11.47;7.77;;;;;;;26.47;58.78;99831.16;3593307;81;26768;-85
2022/08/14 16:59:22;;;;;;;13.45;7.62;;;;;;;26.45;58.95;99827.45;3591898;81;98795;-85
2022/08/14 17:04:29;;;;;;;13.45;7.42;;;;;;;26.44;59.03;99824.50;3586379;81;26567;-85
2022/08/14 17:09:41;;;;;;;12.82;8.45;;;;;;;26.45;59.03;99820.40;3575868;81;98826;-84
2022/08/14 17:15:04;;;;;;;10.70;7.28;;;;;;;26.44;59.09;99822.30;3586970;81;45369;-86
2022/08/14 17:20:16;;;;;;;13.48;8.53;;;;;;;26.42;59.10;99835.49;3577166;81;98382;-86
2022/08/14 17:25:24;;;;;;;10.50;6.97;;;;;;;26.39;59.29;99833.69;3535738;81;26400;-85
2022/08/14 17:30:25;;;;;;;13.80;8.00;;;;;;;26.37;59.59;99816.46;3543493;81;98982;-85
2022/08/14 17:35:27;;;;;;;14.60;9.33;;;;;;;26.36;59.63;99821.97;3547349;81;31905;-85
2022/08/14 17:40:30;;;;;;;12.73;8.53;;;;;;;26.37;59.87;99817.87;3547072;82;98469;-85
2022/08/14 17:45:39;;;;;;;12.78;8.40;;;;;;;26.33;59.72;99819.38;3494903;82;25992;-84
2022/08/14 17:50:48;;;;;;;12.73;9.53;;;;;;;26.30;59.66;99821.15;3504038;82;97854;-84
2022/08/14 17:55:52;;;;;;;14.23;9.60;;;;;;;26.23;59.72;99824.42;3559455;82;25846;-83
2022/08/14 18:00:57;;;;;;;12.82;9.38;;;;;;;26.19;59.95;99837.18;3549445;81;98397;-82
2022/08/14 18:05:59;;;;;;;13.05;8.53;;;;;;;26.13;60.15;99844.81;3560594;81;25768;-82
2022/08/14 18:11:01;;;;;;;11.50;8.08;;;;;;;26.01;60.35;99839.70;3546547;81;98274;-82
2022/08/14 18:16:03;;;;;;;12.05;7.83;;;;;;;25.97;60.72;99844.78;3552824;82;26666;-82
2022/08/14 18:21:04;;;;;;;12.65;8.25;;;;;;;25.93;60.97;99843.45;3538315;81;98236;-83
2022/08/14 18:26:06;;;;;;;12.13;9.15;;;;;;;25.88;60.96;99838.49;3553408;81;59721;-82
2022/08/14 18:31:25;;;;;;;13.40;8.60;;;;;;;25.83;61.12;99843.44;3515054;83;98401;-83
2022/08/14 18:36:55;;;;;;;12.75;8.60;;;;;;;25.76;61.41;99852.30;3537121;82;98726;-81
2022/08/14 18:42:07;;;;;;;12.90;8.80;;;;;;;25.70;61.54;99865.55;3543075;82;56627;-84
2022/08/14 18:47:14;;;;;;;16.37;9.30;;;;;;;25.59;61.93;99860.55;3549729;82;98926;-82
2022/08/14 18:52:15;;;;;;;14.10;9.33;;;;;;;25.51;62.42;99868.52;3550313;82;25925;-83
2022/08/14 18:57:16;;;;;;;13.38;8.95;;;;;;;25.45;62.69;99865.61;3558891;82;98476;-83
2022/08/14 19:02:33;;;;;;;12.33;8.80;;;;;;;25.39;63.02;99873.20;3517924;82;1891852;-85
2022/08/14 19:07:34;;;;;;;11.83;9.00;;;;;;;25.31;63.23;99879.74;3525836;82;99103;-83
2022/08/14 19:12:56;;;;;;;13.75;9.08;;;;;;;25.24;63.68;99873.09;3546039;82;31979;-83
2022/08/14 19:17:58;;;;;;;13.35;9.70;;;;;;;25.16;64.46;99874.13;3535768;82;98671;-83
2022/08/14 19:23:02;;;;;;;12.37;9.33;;;;;;;25.07;65.19;99872.06;3545836;82;28551;-84
2022/08/14 19:28:24;;;;;;;15.23;10.90;;;;;;;24.97;65.78;99871.41;3528119;82;98549;-84
2022/08/14 19:33:45;;;;;;;15.68;10.03;;;;;;;24.87;66.38;99860.11;3544131;82;25934;-82
2022/08/14 19:38:58;;;;;;;13.75;9.88;;;;;;;24.80;66.85;99861.14;3555715;82;99025;-83
2022/08/14 19:44:16;;;;;;;15.25;10.45;;;;;;;24.70;67.34;99859.07;3561113;82;36727;-81
2022/08/14 19:49:19;;;;;;;15.00;10.82;;;;;;;24.52;68.30;99848.62;3503035;82;99079;-81
2022/08/14 19:54:33;;;;;;;13.60;10.53;;;;;;;24.52;68.30;99848.62;3534398;81;26451;-81
2022/08/14 19:59:34;;;;;;;14.40;10.88;;;;;;;24.44;68.69;99846.03;3542039;81;98584;-81
2022/08/14 20:04:36;;;;;;;15.32;10.85;;;;;;;24.32;68.72;99843.67;3580439;81;31802;-81
2022/08/14 20:09:41;;;;;;;12.95;9.68;;;;;;;24.23;69.39;99846.56;3595332;81;98516;-81
2022/08/14 20:14:42;;;;;;;18.52;11.63;;;;;;;24.15;69.77;99841.80;3583332;81;29060;-81
2022/08/14 20:19:44;;;;;;;14.93;11.10;;;;;;;24.07;70.16;99842.81;3586175;81;98806;-82
2022/08/14 20:24:46;;;;;;;16.15;10.85;;;;;;;24.01;70.48;99848.16;3599932;81;26063;-82
2022/08/14 20:30:18;;;;;;;15.38;11.33;;;;;;;23.95;70.81;99841.66;3597632;81;98429;-81
2022/08/14 20:35:43;;;;;;;15.23;11.38;;;;;;;23.87;71.08;99832.80;3602045;81;26618;-81
2022/08/14 20:40:54;;;;;;;17.07;12.47;;;;;;;23.76;71.33;99821.98;3607032;81;98700;-81
2022/08/14 20:45:56;;;;;;;15.20;11.55;;;;;;;23.68;71.64;99810.95;3599116;81;42063;-80
2022/08/14 20:51:03;;;;;;;15.90;11.43;;;;;;;23.59;71.93;99812.44;3575276;81;98500;-81
2022/08/14 20:56:21;;;;;;;15.90;11.70;;;;;;;23.48;72.31;99812.21;3595816;81;26560;-82
2022/08/14 21:01:29;;;;;;;16.32;11.78;;;;;;;23.38;72.50;99811.47;3599933;81;26025;-81
2022/08/14 21:06:35;;;;;;;17.45;12.20;;;;;;;23.30;72.74;99806.70;3595771;81;98698;-81
2022/08/14 21:11:36;;;;;;;15.55;11.83;;;;;;;23.22;73.13;99808.33;3597519;81;25934;-80
2022/08/14 21:16:37;;;;;;;18.82;12.40;;;;;;;23.16;73.49;99812.38;3596311;81;98987;-81
2022/08/14 21:21:40;;;;;;;18.12;11.80;;;;;;;23.09;73.68;99804.92;3524387;81;37891;-81
2022/08/14 21:26:45;;;;;;;15.68;11.68;;;;;;;23.00;73.91;99809.96;3469683;83;98950;-81
2022/08/14 21:31:46;;;;;;;16.52;12.45;;;;;;;22.96;74.16;99815.61;3494119;82;25925;-81
2022/08/14 21:36:53;;;;;;;17.00;12.00;;;;;;;22.88;74.27;99818.63;3484614;83;98899;-81
2022/08/14 21:41:58;;;;;;;17.62;12.00;;;;;;;22.81;74.50;99827.36;3486291;82;25874;-81
2022/08/14 21:46:58;;;;;;;18.05;12.65;;;;;;;22.74;74.68;99824.91;3491327;83;99313;-81
2022/08/14 21:52:05;;;;;;;19.40;14.85;;;;;;;22.68;74.86;99831.02;3501199;82;32191;-80
2022/08/14 21:57:09;;;;;;;19.07;13.62;;;;;;;22.60;74.84;99830.56;3488436;83;98885;-80
2022/08/14 22:02:11;;;;;;;19.62;13.13;;;;;;;22.55;75.21;99831.84;3498313;82;26720;-80
2022/08/14 22:07:14;;;;;;;19.55;13.65;;;;;;;22.49;75.38;99836.51;3495672;82;98601;-81
2022/08/14 22:12:15;;;;;;;20.10;13.85;;;;;;;22.47;75.67;99843.23;3531997;82;32813;-81
2022/08/14 22:17:16;;;;;;;20.50;14.28;;;;;;;22.38;75.78;99832.00;3502564;83;98851;-82
2022/08/14 22:22:18;;;;;;;21.55;15.13;;;;;;;22.28;76.11;99833.28;3522954;82;31618;-82
2022/08/14 22:27:20;;;;;;;19.55;14.85;;;;;;;22.24;76.46;99821.45;3566947;81;99002;-82
2022/08/14 22:32:21;;;;;;;21.60;16.52;;;;;;;22.14;76.71;99818.50;3606954;81;26412;-81
2022/08/14 22:37:22;;;;;;;25.55;16.42;;;;;;;22.07;77.20;99820.23;3588035;81;99054;-82
2022/08/14 22:42:23;;;;;;;21.82;17.62;;;;;;;22.03;77.75;99797.98;3600959;81;30903;-80
2022/08/14 22:47:24;;;;;;;22.13;16.55;;;;;;;21.98;77.84;99796.42;3595486;81;99164;-81
2022/08/14 22:52:26;;;;;;;23.38;17.70;;;;;;;21.91;78.23;99804.52;3600689;81;31434;-80
2022/08/14 22:57:27;;;;;;;23.67;17.67;;;;;;;21.87;78.56;99789.91;3577070;81;98655;-81
2022/08/14 23:02:31;;;;;;;23.75;17.82;;;;;;;21.82;79.06;99796.74;3595887;81;32292;-81
2022/08/14 23:07:32;;;;;;;20.15;16.25;;;;;;;21.79;79.26;99786.49;3603885;81;98687;-80
2022/08/14 23:12:41;;;;;;;22.75;16.65;;;;;;;21.81;79.24;99786.79;3613787;81;31853;-82
2022/08/14 23:17:41;;;;;;;23.47;18.55;;;;;;;21.86;79.24;99795.97;3595314;81;99074;-80
2022/08/14 23:22:45;;;;;;;25.48;18.73;;;;;;;21.87;79.20;99798.92;3588662;81;32303;-81
2022/08/14 23:27:50;;;;;;;25.65;18.82;;;;;;;21.89;79.39;99799.22;3566635;81;99058;-81
2022/08/14 23:32:53;;;;;;;25.97;19.10;;;;;;;21.88;79.29;99790.67;3531023;81;26657;-82
2022/08/14 23:37:57;;;;;;;25.37;19.07;;;;;;;21.90;79.51;99779.78;3581977;80;99343;-82
2022/08/14 23:43:08;;;;;;;23.18;18.67;;;;;;;21.93;79.58;99772.62;3562510;80;25810;-81